sensor_id;sensor_type;location;lat;lon;timestamp;P1;P2;P0
62631;PMS5003;48703;51.248;-0.546;2023-03-16T00:02:35;12.21;11.79;
62631;PMS5003;48703;51.248;-0.546;2023-03-16T00:05:37;12.24;11.37;
62631;PMS5003;48703;51.248;-0.546;2023-03-16T00:08:38;12.73;11.41;
62631;PMS5003;48703;51.248;-0.546;2023-03-16T00:11:40;13.17;11.87;
62631;PMS5003;48703;51.248;-0.546;2023-03-16T00:14:42;13.53;11.93;
62631;PMS5003;48703;51.248;-0.546;2023-03-16T00:17:43;10.67;10.30;
62631;PMS5003;48703;51.248;-0.546;2023-03-16T00:20:48;12.74;10.76;
62631;PMS5003;48703;51.248;-0.546;2023-03-16T00:23:46;12.71;11.65;
62631;PMS5003;48703;51.248;-0.546;2023-03-16T00:26:48;12.41;11.00;
62631;PMS5003;48703;51.248;-0.546;2023-03-16T00:29:50;13.71;10.77;
62631;PMS5003;48703;51.248;-0.546;2023-03-16T00:32:51;10.91;10.04;
62631;PMS5003;48703;51.248;-0.546;2023-03-16T00:35:53;11.61;10.26;
62631;PMS5003;48703;51.248;-0.546;2023-03-16T00:38:55;12.26;11.31;
62631;PMS5003;48703;51.248;-0.546;2023-03-16T00:41:56;11.61;9.96;
62631;PMS5003;48703;51.248;-0.546;2023-03-16T00:44:58;9.97;8.86;
62631;PMS5003;48703;51.248;-0.546;2023-03-16T00:48:00;12.79;10.91;
62631;PMS5003;48703;51.248;-0.546;2023-03-16T00:51:02;11.66;10.59;
62631;PMS5003;48703;51.248;-0.546;2023-03-16T00:54:03;12.81;10.70;
62631;PMS5003;48703;51.248;-0.546;2023-03-16T00:57:04;11.91;10.37;
62631;PMS5003;48703;51.248;-0.546;2023-03-16T01:00:07;11.80;10.71;
62631;PMS5003;48703;51.248;-0.546;2023-03-16T01:03:08;11.69;10.77;
62631;PMS5003;48703;51.248;-0.546;2023-03-16T01:06:11;10.03;9.69;
62631;PMS5003;48703;51.248;-0.546;2023-03-16T01:09:12;10.47;9.69;
62631;PMS5003;48703;51.248;-0.546;2023-03-16T01:12:14;11.14;10.17;
62631;PMS5003;48703;51.248;-0.546;2023-03-16T01:15:15;10.61;9.61;
62631;PMS5003;48703;51.248;-0.546;2023-03-16T01:18:16;9.53;8.79;
62631;PMS5003;48703;51.248;-0.546;2023-03-16T01:21:18;11.50;10.60;
62631;PMS5003;48703;51.248;-0.546;2023-03-16T01:24:20;11.16;10.29;
62631;PMS5003;48703;51.248;-0.546;2023-03-16T01:27:22;14.56;13.09;
62631;PMS5003;48703;51.248;-0.546;2023-03-16T01:30:23;13.00;11.50;
62631;PMS5003;48703;51.248;-0.546;2023-03-16T01:33:27;12.40;11.40;
62631;PMS5003;48703;51.248;-0.546;2023-03-16T01:36:27;13.04;11.84;
62631;PMS5003;48703;51.248;-0.546;2023-03-16T01:39:29;14.64;12.37;
62631;PMS5003;48703;51.248;-0.546;2023-03-16T01:42:31;13.09;11.39;
62631;PMS5003;48703;51.248;-0.546;2023-03-16T01:46:10;13.03;12.37;
62631;PMS5003;48703;51.248;-0.546;2023-03-16T01:48:34;11.99;11.26;
62631;PMS5003;48703;51.248;-0.546;2023-03-16T01:51:37;10.07;9.56;
62631;PMS5003;48703;51.248;-0.546;2023-03-16T01:54:38;11.50;10.47;
62631;PMS5003;48703;51.248;-0.546;2023-03-16T01:57:39;11.54;10.86;
62631;PMS5003;48703;51.248;-0.546;2023-03-16T02:00:41;11.70;10.39;
62631;PMS5003;48703;51.248;-0.546;2023-03-16T02:03:43;14.64;13.51;
62631;PMS5003;48703;51.248;-0.546;2023-03-16T02:06:45;14.07;12.47;
62631;PMS5003;48703;51.248;-0.546;2023-03-16T02:09:47;12.66;11.36;
62631;PMS5003;48703;51.248;-0.546;2023-03-16T02:12:49;13.86;12.73;
62631;PMS5003;48703;51.248;-0.546;2023-03-16T02:15:50;15.01;14.11;
62631;PMS5003;48703;51.248;-0.546;2023-03-16T02:18:52;13.13;12.26;
62631;PMS5003;48703;51.248;-0.546;2023-03-16T02:21:54;13.30;12.96;
62631;PMS5003;48703;51.248;-0.546;2023-03-16T02:24:55;15.10;13.01;
62631;PMS5003;48703;51.248;-0.546;2023-03-16T02:27:59;13.99;13.06;
62631;PMS5003;48703;51.248;-0.546;2023-03-16T02:30:58;12.76;12.53;
62631;PMS5003;48703;51.248;-0.546;2023-03-16T02:34:00;15.70;13.56;
62631;PMS5003;48703;51.248;-0.546;2023-03-16T02:37:01;13.61;13.49;
62631;PMS5003;48703;51.248;-0.546;2023-03-16T02:40:12;13.31;11.31;
62631;PMS5003;48703;51.248;-0.546;2023-03-16T02:43:06;14.01;12.73;
62631;PMS5003;48703;51.248;-0.546;2023-03-16T02:46:06;14.00;13.29;
62631;PMS5003;48703;51.248;-0.546;2023-03-16T02:49:10;13.01;12.54;
62631;PMS5003;48703;51.248;-0.546;2023-03-16T02:52:09;11.27;11.04;
62631;PMS5003;48703;51.248;-0.546;2023-03-16T02:55:10;9.31;8.80;
62631;PMS5003;48703;51.248;-0.546;2023-03-16T02:58:12;10.24;8.41;
62631;PMS5003;48703;51.248;-0.546;2023-03-16T03:01:14;8.41;8.11;
62631;PMS5003;48703;51.248;-0.546;2023-03-16T03:04:16;7.36;7.06;
62631;PMS5003;48703;51.248;-0.546;2023-03-16T03:07:17;9.09;7.31;
62631;PMS5003;48703;51.248;-0.546;2023-03-16T03:10:19;9.70;9.45;
62631;PMS5003;48703;51.248;-0.546;2023-03-16T03:13:21;9.99;8.93;
62631;PMS5003;48703;51.248;-0.546;2023-03-16T03:16:22;13.23;11.76;
62631;PMS5003;48703;51.248;-0.546;2023-03-16T03:19:24;12.53;10.10;
62631;PMS5003;48703;51.248;-0.546;2023-03-16T03:22:25;11.47;11.13;
62631;PMS5003;48703;51.248;-0.546;2023-03-16T03:25:27;13.46;11.89;
62631;PMS5003;48703;51.248;-0.546;2023-03-16T03:28:29;11.34;10.74;
62631;PMS5003;48703;51.248;-0.546;2023-03-16T03:31:30;13.50;13.34;
62631;PMS5003;48703;51.248;-0.546;2023-03-16T03:34:32;15.53;14.11;
62631;PMS5003;48703;51.248;-0.546;2023-03-16T03:37:34;16.53;14.86;
62631;PMS5003;48703;51.248;-0.546;2023-03-16T03:40:35;14.89;13.54;
62631;PMS5003;48703;51.248;-0.546;2023-03-16T03:43:37;14.83;13.99;
62631;PMS5003;48703;51.248;-0.546;2023-03-16T03:46:39;15.43;13.63;
62631;PMS5003;48703;51.248;-0.546;2023-03-16T03:49:40;14.63;13.24;
62631;PMS5003;48703;51.248;-0.546;2023-03-16T03:52:41;15.03;12.67;
62631;PMS5003;48703;51.248;-0.546;2023-03-16T03:55:43;16.01;14.47;
62631;PMS5003;48703;51.248;-0.546;2023-03-16T03:58:45;17.00;15.81;
62631;PMS5003;48703;51.248;-0.546;2023-03-16T04:01:47;17.13;16.83;
62631;PMS5003;48703;51.248;-0.546;2023-03-16T04:04:48;17.37;15.79;
62631;PMS5003;48703;51.248;-0.546;2023-03-16T04:07:49;17.06;16.62;
62631;PMS5003;48703;51.248;-0.546;2023-03-16T04:10:51;20.57;17.00;
62631;PMS5003;48703;51.248;-0.546;2023-03-16T04:13:52;15.49;13.83;
62631;PMS5003;48703;51.248;-0.546;2023-03-16T04:16:53;17.41;15.03;
62631;PMS5003;48703;51.248;-0.546;2023-03-16T04:19:55;19.99;18.13;
62631;PMS5003;48703;51.248;-0.546;2023-03-16T04:22:56;17.36;16.96;
62631;PMS5003;48703;51.248;-0.546;2023-03-16T04:25:57;17.38;16.62;
62631;PMS5003;48703;51.248;-0.546;2023-03-16T04:28:59;19.93;17.59;
62631;PMS5003;48703;51.248;-0.546;2023-03-16T04:32:00;20.57;18.93;
62631;PMS5003;48703;51.248;-0.546;2023-03-16T04:35:02;20.24;18.23;
62631;PMS5003;48703;51.248;-0.546;2023-03-16T04:38:03;21.89;20.70;
62631;PMS5003;48703;51.248;-0.546;2023-03-16T04:41:05;18.65;17.43;
62631;PMS5003;48703;51.248;-0.546;2023-03-16T04:44:06;15.17;15.06;
62631;PMS5003;48703;51.248;-0.546;2023-03-16T04:47:08;15.81;15.79;
62631;PMS5003;48703;51.248;-0.546;2023-03-16T04:50:10;16.07;14.40;
62631;PMS5003;48703;51.248;-0.546;2023-03-16T04:53:11;16.60;14.81;
62631;PMS5003;48703;51.248;-0.546;2023-03-16T04:56:13;15.57;14.27;
62631;PMS5003;48703;51.248;-0.546;2023-03-16T04:59:14;18.81;18.52;
62631;PMS5003;48703;51.248;-0.546;2023-03-16T05:02:15;18.49;16.94;
62631;PMS5003;48703;51.248;-0.546;2023-03-16T05:05:17;14.86;13.10;
62631;PMS5003;48703;51.248;-0.546;2023-03-16T05:08:18;14.76;11.96;
62631;PMS5003;48703;51.248;-0.546;2023-03-16T05:11:20;9.20;9.17;
62631;PMS5003;48703;51.248;-0.546;2023-03-16T05:14:22;8.49;7.50;
62631;PMS5003;48703;51.248;-0.546;2023-03-16T05:17:24;8.06;7.01;
62631;PMS5003;48703;51.248;-0.546;2023-03-16T05:20:25;6.86;6.83;
62631;PMS5003;48703;51.248;-0.546;2023-03-16T05:23:26;8.49;7.67;
62631;PMS5003;48703;51.248;-0.546;2023-03-16T05:26:28;9.46;8.29;
62631;PMS5003;48703;51.248;-0.546;2023-03-16T05:29:30;8.19;6.56;
62631;PMS5003;48703;51.248;-0.546;2023-03-16T05:32:31;9.31;7.84;
62631;PMS5003;48703;51.248;-0.546;2023-03-16T05:35:33;9.29;7.83;
62631;PMS5003;48703;51.248;-0.546;2023-03-16T05:38:35;6.13;5.96;
62631;PMS5003;48703;51.248;-0.546;2023-03-16T05:41:36;8.26;6.73;
62631;PMS5003;48703;51.248;-0.546;2023-03-16T05:44:38;8.01;6.70;
62631;PMS5003;48703;51.248;-0.546;2023-03-16T05:47:40;5.87;5.46;
62631;PMS5003;48703;51.248;-0.546;2023-03-16T05:50:42;5.89;5.89;
62631;PMS5003;48703;51.248;-0.546;2023-03-16T05:53:43;4.61;4.27;
62631;PMS5003;48703;51.248;-0.546;2023-03-16T05:56:45;4.80;3.46;
62631;PMS5003;48703;51.248;-0.546;2023-03-16T05:59:47;4.20;4.03;
62631;PMS5003;48703;51.248;-0.546;2023-03-16T06:02:49;4.00;3.80;
62631;PMS5003;48703;51.248;-0.546;2023-03-16T06:05:50;3.74;3.63;
62631;PMS5003;48703;51.248;-0.546;2023-03-16T06:08:52;4.86;4.50;
62631;PMS5003;48703;51.248;-0.546;2023-03-16T06:11:53;4.26;3.83;
62631;PMS5003;48703;51.248;-0.546;2023-03-16T06:14:55;6.04;5.40;
62631;PMS5003;48703;51.248;-0.546;2023-03-16T06:17:57;3.86;3.86;
62631;PMS5003;48703;51.248;-0.546;2023-03-16T06:20:58;6.54;5.14;
62631;PMS5003;48703;51.248;-0.546;2023-03-16T06:24:00;4.46;4.46;
62631;PMS5003;48703;51.248;-0.546;2023-03-16T06:27:02;3.49;3.44;
62631;PMS5003;48703;51.248;-0.546;2023-03-16T06:30:04;6.39;5.27;
62631;PMS5003;48703;51.248;-0.546;2023-03-16T06:33:05;3.90;3.47;
62631;PMS5003;48703;51.248;-0.546;2023-03-16T06:36:07;3.50;3.34;
62631;PMS5003;48703;51.248;-0.546;2023-03-16T06:39:08;4.46;4.09;
62631;PMS5003;48703;51.248;-0.546;2023-03-16T06:42:10;3.80;3.50;
62631;PMS5003;48703;51.248;-0.546;2023-03-16T06:45:12;4.20;3.81;
62631;PMS5003;48703;51.248;-0.546;2023-03-16T06:48:13;3.30;2.89;
62631;PMS5003;48703;51.248;-0.546;2023-03-16T06:51:15;2.51;2.51;
62631;PMS5003;48703;51.248;-0.546;2023-03-16T06:54:17;1.87;1.64;
62631;PMS5003;48703;51.248;-0.546;2023-03-16T06:57:18;2.90;2.47;
62631;PMS5003;48703;51.248;-0.546;2023-03-16T07:00:20;3.41;1.69;
62631;PMS5003;48703;51.248;-0.546;2023-03-16T07:03:21;2.29;1.77;
62631;PMS5003;48703;51.248;-0.546;2023-03-16T07:06:23;1.94;1.86;
62631;PMS5003;48703;51.248;-0.546;2023-03-16T07:09:25;1.91;1.69;
62631;PMS5003;48703;51.248;-0.546;2023-03-16T07:12:26;1.97;1.71;
62631;PMS5003;48703;51.248;-0.546;2023-03-16T07:15:28;1.00;1.00;
62631;PMS5003;48703;51.248;-0.546;2023-03-16T07:18:30;2.27;2.09;
62631;PMS5003;48703;51.248;-0.546;2023-03-16T07:21:31;2.20;2.20;
62631;PMS5003;48703;51.248;-0.546;2023-03-16T07:24:33;1.26;0.94;
62631;PMS5003;48703;51.248;-0.546;2023-03-16T07:27:34;2.42;2.17;
62631;PMS5003;48703;51.248;-0.546;2023-03-16T07:30:36;1.17;1.17;
62631;PMS5003;48703;51.248;-0.546;2023-03-16T07:33:37;1.47;1.47;
62631;PMS5003;48703;51.248;-0.546;2023-03-16T07:36:39;3.56;1.06;
62631;PMS5003;48703;51.248;-0.546;2023-03-16T07:39:41;1.64;1.60;
62631;PMS5003;48703;51.248;-0.546;2023-03-16T07:42:42;0.60;0.60;
62631;PMS5003;48703;51.248;-0.546;2023-03-16T07:45:46;0.97;0.61;
62631;PMS5003;48703;51.248;-0.546;2023-03-16T07:48:46;1.61;0.93;
62631;PMS5003;48703;51.248;-0.546;2023-03-16T07:51:47;1.01;0.93;
62631;PMS5003;48703;51.248;-0.546;2023-03-16T07:54:49;2.20;1.64;
62631;PMS5003;48703;51.248;-0.546;2023-03-16T07:57:51;3.24;2.19;
62631;PMS5003;48703;51.248;-0.546;2023-03-16T08:00:54;1.56;1.39;
62631;PMS5003;48703;51.248;-0.546;2023-03-16T08:03:54;2.20;1.64;
62631;PMS5003;48703;51.248;-0.546;2023-03-16T08:06:56;2.21;2.09;
62631;PMS5003;48703;51.248;-0.546;2023-03-16T08:09:57;4.47;2.41;
62631;PMS5003;48703;51.248;-0.546;2023-03-16T08:12:59;1.96;1.96;
62631;PMS5003;48703;51.248;-0.546;2023-03-16T08:16:01;2.01;1.87;
62631;PMS5003;48703;51.248;-0.546;2023-03-16T08:19:02;1.57;1.57;
62631;PMS5003;48703;51.248;-0.546;2023-03-16T08:22:04;2.43;1.04;
62631;PMS5003;48703;51.248;-0.546;2023-03-16T08:25:06;1.83;1.83;
62631;PMS5003;48703;51.248;-0.546;2023-03-16T08:28:07;3.30;2.69;
62631;PMS5003;48703;51.248;-0.546;2023-03-16T08:31:09;2.99;2.64;
62631;PMS5003;48703;51.248;-0.546;2023-03-16T08:34:10;3.13;2.13;
62631;PMS5003;48703;51.248;-0.546;2023-03-16T08:37:12;3.36;2.86;
62631;PMS5003;48703;51.248;-0.546;2023-03-16T08:40:14;3.73;2.36;
62631;PMS5003;48703;51.248;-0.546;2023-03-16T08:43:16;1.21;1.21;
62631;PMS5003;48703;51.248;-0.546;2023-03-16T08:46:17;3.84;3.24;
62631;PMS5003;48703;51.248;-0.546;2023-03-16T08:49:19;1.89;1.89;
62631;PMS5003;48703;51.248;-0.546;2023-03-16T08:52:20;2.47;2.17;
62631;PMS5003;48703;51.248;-0.546;2023-03-16T08:55:22;5.03;2.94;
62631;PMS5003;48703;51.248;-0.546;2023-03-16T08:58:24;4.70;3.03;
62631;PMS5003;48703;51.248;-0.546;2023-03-16T09:01:25;5.03;4.21;
62631;PMS5003;48703;51.248;-0.546;2023-03-16T09:04:27;4.35;3.57;
62631;PMS5003;48703;51.248;-0.546;2023-03-16T09:07:28;4.13;3.23;
62631;PMS5003;48703;51.248;-0.546;2023-03-16T09:10:30;2.41;2.37;
62631;PMS5003;48703;51.248;-0.546;2023-03-16T09:13:32;2.36;2.36;
62631;PMS5003;48703;51.248;-0.546;2023-03-16T09:16:33;4.16;3.24;
62631;PMS5003;48703;51.248;-0.546;2023-03-16T09:19:35;3.17;2.77;
62631;PMS5003;48703;51.248;-0.546;2023-03-16T09:22:37;2.30;2.30;
62631;PMS5003;48703;51.248;-0.546;2023-03-16T09:25:38;4.87;3.63;
62631;PMS5003;48703;51.248;-0.546;2023-03-16T09:28:39;3.17;2.94;
62631;PMS5003;48703;51.248;-0.546;2023-03-16T09:31:41;3.66;3.11;
62631;PMS5003;48703;51.248;-0.546;2023-03-16T09:34:42;3.51;3.17;
62631;PMS5003;48703;51.248;-0.546;2023-03-16T09:37:44;3.64;3.39;
62631;PMS5003;48703;51.248;-0.546;2023-03-16T09:40:47;4.51;3.83;
62631;PMS5003;48703;51.248;-0.546;2023-03-16T09:43:50;5.19;4.29;
62631;PMS5003;48703;51.248;-0.546;2023-03-16T09:46:49;2.86;2.77;
62631;PMS5003;48703;51.248;-0.546;2023-03-16T09:49:50;3.76;3.43;
62631;PMS5003;48703;51.248;-0.546;2023-03-16T09:52:54;3.00;3.00;
62631;PMS5003;48703;51.248;-0.546;2023-03-16T09:55:54;3.96;3.11;
62631;PMS5003;48703;51.248;-0.546;2023-03-16T09:58:56;2.91;2.29;
62631;PMS5003;48703;51.248;-0.546;2023-03-16T10:02:01;2.89;2.41;
62631;PMS5003;48703;51.248;-0.546;2023-03-16T10:05:00;2.37;2.04;
62631;PMS5003;48703;51.248;-0.546;2023-03-16T10:08:05;3.80;3.13;
62631;PMS5003;48703;51.248;-0.546;2023-03-16T10:11:13;2.54;2.11;
62631;PMS5003;48703;51.248;-0.546;2023-03-16T10:14:04;4.49;3.59;
62631;PMS5003;48703;51.248;-0.546;2023-03-16T10:17:05;3.86;3.19;
62631;PMS5003;48703;51.248;-0.546;2023-03-16T10:20:07;3.46;3.37;
62631;PMS5003;48703;51.248;-0.546;2023-03-16T10:23:12;2.86;2.40;
62631;PMS5003;48703;51.248;-0.546;2023-03-16T10:26:12;2.67;1.91;
62631;PMS5003;48703;51.248;-0.546;2023-03-16T10:29:11;3.57;1.39;
62631;PMS5003;48703;51.248;-0.546;2023-03-16T10:32:14;2.23;1.86;
62631;PMS5003;48703;51.248;-0.546;2023-03-16T10:35:17;1.61;1.59;
62631;PMS5003;48703;51.248;-0.546;2023-03-16T10:38:33;3.01;2.07;
62631;PMS5003;48703;51.248;-0.546;2023-03-16T10:41:19;2.03;1.49;
62631;PMS5003;48703;51.248;-0.546;2023-03-16T10:44:21;2.28;2.28;
62631;PMS5003;48703;51.248;-0.546;2023-03-16T10:47:21;3.43;2.49;
62631;PMS5003;48703;51.248;-0.546;2023-03-16T10:50:23;2.07;2.06;
62631;PMS5003;48703;51.248;-0.546;2023-03-16T10:53:26;2.34;2.34;
62631;PMS5003;48703;51.248;-0.546;2023-03-16T10:56:25;2.60;2.60;
62631;PMS5003;48703;51.248;-0.546;2023-03-16T10:59:28;3.23;2.73;
62631;PMS5003;48703;51.248;-0.546;2023-03-16T11:02:30;3.06;3.06;
62631;PMS5003;48703;51.248;-0.546;2023-03-16T11:05:31;4.01;3.46;
62631;PMS5003;48703;51.248;-0.546;2023-03-16T11:08:32;7.30;5.44;
62631;PMS5003;48703;51.248;-0.546;2023-03-16T11:11:33;8.01;6.54;
62631;PMS5003;48703;51.248;-0.546;2023-03-16T11:14:34;6.80;6.11;
62631;PMS5003;48703;51.248;-0.546;2023-03-16T11:17:37;2.91;2.91;
62631;PMS5003;48703;51.248;-0.546;2023-03-16T11:20:37;3.61;2.43;
62631;PMS5003;48703;51.248;-0.546;2023-03-16T11:23:39;8.13;6.80;
62631;PMS5003;48703;51.248;-0.546;2023-03-16T11:26:40;14.09;12.30;
62631;PMS5003;48703;51.248;-0.546;2023-03-16T11:29:45;3.86;2.97;
62631;PMS5003;48703;51.248;-0.546;2023-03-16T11:32:45;3.21;3.21;
62631;PMS5003;48703;51.248;-0.546;2023-03-16T11:35:46;9.07;8.43;
62631;PMS5003;48703;51.248;-0.546;2023-03-16T11:38:47;4.93;3.73;
62631;PMS5003;48703;51.248;-0.546;2023-03-16T11:41:51;12.71;10.84;
62631;PMS5003;48703;51.248;-0.546;2023-03-16T11:44:49;29.16;24.90;
62631;PMS5003;48703;51.248;-0.546;2023-03-16T11:48:08;11.86;10.32;
62631;PMS5003;48703;51.248;-0.546;2023-03-16T11:50:55;7.03;5.00;
62631;PMS5003;48703;51.248;-0.546;2023-03-16T11:53:56;4.31;3.31;
62631;PMS5003;48703;51.248;-0.546;2023-03-16T11:56:55;3.86;3.09;
62631;PMS5003;48703;51.248;-0.546;2023-03-16T11:59:59;4.09;3.36;
62631;PMS5003;48703;51.248;-0.546;2023-03-16T12:03:15;3.90;3.17;
62631;PMS5003;48703;51.248;-0.546;2023-03-16T12:05:59;3.77;3.77;
62631;PMS5003;48703;51.248;-0.546;2023-03-16T12:09:03;3.71;3.46;
62631;PMS5003;48703;51.248;-0.546;2023-03-16T12:12:03;5.00;4.40;
62631;PMS5003;48703;51.248;-0.546;2023-03-16T12:15:09;4.77;3.19;
62631;PMS5003;48703;51.248;-0.546;2023-03-16T12:18:09;4.09;3.53;
62631;PMS5003;48703;51.248;-0.546;2023-03-16T12:21:09;4.63;4.40;
62631;PMS5003;48703;51.248;-0.546;2023-03-16T12:24:09;4.20;3.73;
62631;PMS5003;48703;51.248;-0.546;2023-03-16T12:27:11;4.03;4.03;
62631;PMS5003;48703;51.248;-0.546;2023-03-16T12:30:17;4.64;4.09;
62631;PMS5003;48703;51.248;-0.546;2023-03-16T12:33:13;3.94;3.44;
62631;PMS5003;48703;51.248;-0.546;2023-03-16T12:36:29;4.49;4.04;
62631;PMS5003;48703;51.248;-0.546;2023-03-16T12:39:17;4.47;3.53;
62631;PMS5003;48703;51.248;-0.546;2023-03-16T12:42:22;4.13;3.36;
62631;PMS5003;48703;51.248;-0.546;2023-03-16T12:45:22;3.96;3.44;
62631;PMS5003;48703;51.248;-0.546;2023-03-16T12:48:22;3.70;3.00;
62631;PMS5003;48703;51.248;-0.546;2023-03-16T12:51:31;3.60;3.60;
62631;PMS5003;48703;51.248;-0.546;2023-03-16T12:54:24;3.71;3.23;
62631;PMS5003;48703;51.248;-0.546;2023-03-16T12:57:25;4.46;3.50;
62631;PMS5003;48703;51.248;-0.546;2023-03-16T13:00:34;3.99;3.34;
62631;PMS5003;48703;51.248;-0.546;2023-03-16T13:03:28;3.89;3.89;
62631;PMS5003;48703;51.248;-0.546;2023-03-16T13:06:31;5.06;4.73;
62631;PMS5003;48703;51.248;-0.546;2023-03-16T13:09:33;5.90;4.57;
62631;PMS5003;48703;51.248;-0.546;2023-03-16T13:12:33;5.60;4.33;
62631;PMS5003;48703;51.248;-0.546;2023-03-16T13:15:34;4.03;4.03;
62631;PMS5003;48703;51.248;-0.546;2023-03-16T13:18:37;5.40;5.26;
62631;PMS5003;48703;51.248;-0.546;2023-03-16T13:21:39;5.94;5.19;
62631;PMS5003;48703;51.248;-0.546;2023-03-16T13:24:39;5.80;5.80;
62631;PMS5003;48703;51.248;-0.546;2023-03-16T13:27:41;6.17;5.56;
62631;PMS5003;48703;51.248;-0.546;2023-03-16T13:30:44;7.73;5.56;
62631;PMS5003;48703;51.248;-0.546;2023-03-16T13:33:44;4.97;4.87;
62631;PMS5003;48703;51.248;-0.546;2023-03-16T13:36:45;5.81;4.60;
62631;PMS5003;48703;51.248;-0.546;2023-03-16T13:39:51;4.90;4.71;
62631;PMS5003;48703;51.248;-0.546;2023-03-16T13:42:49;5.99;5.33;
62631;PMS5003;48703;51.248;-0.546;2023-03-16T13:45:50;5.40;4.16;
62631;PMS5003;48703;51.248;-0.546;2023-03-16T13:48:52;5.94;5.17;
62631;PMS5003;48703;51.248;-0.546;2023-03-16T13:51:53;6.16;6.03;
62631;PMS5003;48703;51.248;-0.546;2023-03-16T13:54:55;6.31;5.94;
62631;PMS5003;48703;51.248;-0.546;2023-03-16T13:57:56;7.17;6.06;
62631;PMS5003;48703;51.248;-0.546;2023-03-16T14:00:58;7.60;6.40;
62631;PMS5003;48703;51.248;-0.546;2023-03-16T14:04:00;6.79;5.83;
62631;PMS5003;48703;51.248;-0.546;2023-03-16T14:07:02;7.49;6.33;
62631;PMS5003;48703;51.248;-0.546;2023-03-16T14:10:03;8.03;7.37;
62631;PMS5003;48703;51.248;-0.546;2023-03-16T14:13:06;9.87;8.33;
62631;PMS5003;48703;51.248;-0.546;2023-03-16T14:16:10;6.93;6.50;
62631;PMS5003;48703;51.248;-0.546;2023-03-16T14:19:11;7.26;6.83;
62631;PMS5003;48703;51.248;-0.546;2023-03-16T14:22:10;7.03;6.64;
62631;PMS5003;48703;51.248;-0.546;2023-03-16T14:25:13;7.24;6.79;
62631;PMS5003;48703;51.248;-0.546;2023-03-16T14:28:12;6.06;5.89;
62631;PMS5003;48703;51.248;-0.546;2023-03-16T14:31:17;8.10;7.29;
62631;PMS5003;48703;51.248;-0.546;2023-03-16T14:34:20;7.16;6.50;
62631;PMS5003;48703;51.248;-0.546;2023-03-16T14:37:17;7.26;6.33;
62631;PMS5003;48703;51.248;-0.546;2023-03-16T14:40:20;7.53;7.34;
62631;PMS5003;48703;51.248;-0.546;2023-03-16T14:43:20;7.17;6.44;
62631;PMS5003;48703;51.248;-0.546;2023-03-16T14:46:24;8.13;6.33;
62631;PMS5003;48703;51.248;-0.546;2023-03-16T14:49:24;6.76;6.23;
62631;PMS5003;48703;51.248;-0.546;2023-03-16T14:52:25;8.40;7.34;
62631;PMS5003;48703;51.248;-0.546;2023-03-16T14:55:26;8.24;6.83;
62631;PMS5003;48703;51.248;-0.546;2023-03-16T14:58:27;7.24;5.64;
62631;PMS5003;48703;51.248;-0.546;2023-03-16T15:01:29;6.76;6.76;
62631;PMS5003;48703;51.248;-0.546;2023-03-16T15:04:31;7.91;7.19;
62631;PMS5003;48703;51.248;-0.546;2023-03-16T15:07:33;7.50;6.67;
62631;PMS5003;48703;51.248;-0.546;2023-03-16T15:10:34;6.70;5.80;
62631;PMS5003;48703;51.248;-0.546;2023-03-16T15:13:36;7.00;6.87;
62631;PMS5003;48703;51.248;-0.546;2023-03-16T15:16:37;7.06;6.10;
62631;PMS5003;48703;51.248;-0.546;2023-03-16T15:19:38;10.00;8.54;
62631;PMS5003;48703;51.248;-0.546;2023-03-16T15:22:40;7.69;7.34;
62631;PMS5003;48703;51.248;-0.546;2023-03-16T15:25:42;8.67;7.79;
62631;PMS5003;48703;51.248;-0.546;2023-03-16T15:28:43;9.26;8.41;
62631;PMS5003;48703;51.248;-0.546;2023-03-16T15:31:44;9.03;7.94;
62631;PMS5003;48703;51.248;-0.546;2023-03-16T15:34:46;8.31;6.80;
62631;PMS5003;48703;51.248;-0.546;2023-03-16T15:37:48;8.31;5.73;
62631;PMS5003;48703;51.248;-0.546;2023-03-16T15:40:49;6.31;5.04;
62631;PMS5003;48703;51.248;-0.546;2023-03-16T15:43:51;5.81;5.66;
62631;PMS5003;48703;51.248;-0.546;2023-03-16T15:46:52;5.96;5.83;
62631;PMS5003;48703;51.248;-0.546;2023-03-16T15:49:54;7.35;6.48;
62631;PMS5003;48703;51.248;-0.546;2023-03-16T15:52:56;5.16;4.99;
62631;PMS5003;48703;51.248;-0.546;2023-03-16T15:55:57;7.79;6.47;
62631;PMS5003;48703;51.248;-0.546;2023-03-16T15:58:58;6.30;5.57;
62631;PMS5003;48703;51.248;-0.546;2023-03-16T16:01:59;6.63;5.74;
62631;PMS5003;48703;51.248;-0.546;2023-03-16T16:05:01;5.87;4.86;
62631;PMS5003;48703;51.248;-0.546;2023-03-16T16:08:03;6.86;5.20;
62631;PMS5003;48703;51.248;-0.546;2023-03-16T16:11:05;5.09;4.66;
62631;PMS5003;48703;51.248;-0.546;2023-03-16T16:14:08;6.41;5.57;
62631;PMS5003;48703;51.248;-0.546;2023-03-16T16:17:09;5.04;4.61;
62631;PMS5003;48703;51.248;-0.546;2023-03-16T16:20:14;6.16;5.21;
62631;PMS5003;48703;51.248;-0.546;2023-03-16T16:23:11;6.33;5.53;
62631;PMS5003;48703;51.248;-0.546;2023-03-16T16:26:16;7.99;6.11;
62631;PMS5003;48703;51.248;-0.546;2023-03-16T16:29:14;6.22;5.81;
62631;PMS5003;48703;51.248;-0.546;2023-03-16T16:32:19;5.57;5.10;
62631;PMS5003;48703;51.248;-0.546;2023-03-16T16:35:18;5.74;5.31;
62631;PMS5003;48703;51.248;-0.546;2023-03-16T16:38:18;6.86;6.34;
62631;PMS5003;48703;51.248;-0.546;2023-03-16T16:41:22;6.24;5.51;
62631;PMS5003;48703;51.248;-0.546;2023-03-16T16:44:21;6.06;5.66;
62631;PMS5003;48703;51.248;-0.546;2023-03-16T16:47:23;5.46;4.86;
62631;PMS5003;48703;51.248;-0.546;2023-03-16T16:50:25;5.91;5.64;
62631;PMS5003;48703;51.248;-0.546;2023-03-16T16:53:26;6.13;5.54;
62631;PMS5003;48703;51.248;-0.546;2023-03-16T16:56:28;5.91;4.60;
62631;PMS5003;48703;51.248;-0.546;2023-03-16T16:59:29;6.53;5.20;
62631;PMS5003;48703;51.248;-0.546;2023-03-16T17:02:31;5.20;5.20;
62631;PMS5003;48703;51.248;-0.546;2023-03-16T17:05:32;6.03;5.73;
62631;PMS5003;48703;51.248;-0.546;2023-03-16T17:08:33;5.97;5.23;
62631;PMS5003;48703;51.248;-0.546;2023-03-16T17:11:35;5.94;5.33;
62631;PMS5003;48703;51.248;-0.546;2023-03-16T17:14:36;6.30;5.44;
62631;PMS5003;48703;51.248;-0.546;2023-03-16T17:17:38;5.51;5.51;
62631;PMS5003;48703;51.248;-0.546;2023-03-16T17:20:39;6.13;5.24;
62631;PMS5003;48703;51.248;-0.546;2023-03-16T17:23:41;5.94;5.17;
62631;PMS5003;48703;51.248;-0.546;2023-03-16T17:26:43;6.77;6.77;
62631;PMS5003;48703;51.248;-0.546;2023-03-16T17:29:44;8.33;7.09;
62631;PMS5003;48703;51.248;-0.546;2023-03-16T17:32:45;6.06;6.06;
62631;PMS5003;48703;51.248;-0.546;2023-03-16T17:35:47;4.66;4.51;
62631;PMS5003;48703;51.248;-0.546;2023-03-16T17:38:48;8.00;6.70;
62631;PMS5003;48703;51.248;-0.546;2023-03-16T17:41:51;9.24;8.81;
62631;PMS5003;48703;51.248;-0.546;2023-03-16T17:44:51;9.50;8.34;
62631;PMS5003;48703;51.248;-0.546;2023-03-16T17:47:53;7.89;7.43;
62631;PMS5003;48703;51.248;-0.546;2023-03-16T17:50:55;8.87;7.67;
62631;PMS5003;48703;51.248;-0.546;2023-03-16T17:53:56;8.44;6.64;
62631;PMS5003;48703;51.248;-0.546;2023-03-16T17:56:58;6.54;5.96;
62631;PMS5003;48703;51.248;-0.546;2023-03-16T17:59:59;7.23;6.50;
62631;PMS5003;48703;51.248;-0.546;2023-03-16T18:03:01;6.09;5.53;
62631;PMS5003;48703;51.248;-0.546;2023-03-16T18:06:02;8.22;7.00;
62631;PMS5003;48703;51.248;-0.546;2023-03-16T18:09:03;7.74;7.17;
62631;PMS5003;48703;51.248;-0.546;2023-03-16T18:12:05;8.13;6.96;
62631;PMS5003;48703;51.248;-0.546;2023-03-16T18:15:08;6.59;6.10;
62631;PMS5003;48703;51.248;-0.546;2023-03-16T18:18:10;8.47;5.86;
62631;PMS5003;48703;51.248;-0.546;2023-03-16T18:21:11;7.84;6.71;
62631;PMS5003;48703;51.248;-0.546;2023-03-16T18:24:12;6.79;6.79;